Bloomingdale, Illinois
Current Conditions -  °F | °C
As of 8:52 AM on Tuesday 21 Oct 2014 (Local Time) from KDPA Reporting Station
Clear Clear  
Wind Chill: 44°   Ceiling: Unl
Heat Index: 49°   Visibility: 10mi
Dew Point: 39°   Wind: 12mph
Humidity: 69%   Direction: 10°N
Pressure: 30.14"   Gusts: NA
Location:  41.95°N, 88.08°W
Report Text: KDPA 211352Z 01010KT 10SM CLR 09/04 A3014 RMK AO2 SLP210 T00940039
Loading
Personal Weather Stations






























Interactive Weather Map
Tropical Storm Tracking
New forecast layout! Learn more

10-Day Weather Forecast

Advertisements
Track Severe Weather on mobile